sensor_id;sensor_type;location;lat;lon;timestamp;P1;durP1;ratioP1;P2;durP2;ratioP2
23302;SDS011;11820;48.738;9.092;2023-05-23T00:01:11;28.57;;;22.60;;
23302;SDS011;11820;48.738;9.092;2023-05-23T00:03:38;33.43;;;23.83;;
23302;SDS011;11820;48.738;9.092;2023-05-23T00:06:05;31.87;;;25.70;;
23302;SDS011;11820;48.738;9.092;2023-05-23T00:08:31;32.97;;;26.37;;
23302;SDS011;11820;48.738;9.092;2023-05-23T00:10:56;34.03;;;26.33;;
23302;SDS011;11820;48.738;9.092;2023-05-23T00:13:21;34.17;;;28.07;;
23302;SDS011;11820;48.738;9.092;2023-05-23T00:15:47;39.00;;;28.00;;
23302;SDS011;11820;48.738;9.092;2023-05-23T00:18:12;34.33;;;27.17;;
23302;SDS011;11820;48.738;9.092;2023-05-23T00:20:39;36.83;;;26.40;;
23302;SDS011;11820;48.738;9.092;2023-05-23T00:23:06;38.53;;;28.40;;
23302;SDS011;11820;48.738;9.092;2023-05-23T00:25:33;35.43;;;29.60;;
23302;SDS011;11820;48.738;9.092;2023-05-23T00:27:59;33.27;;;29.33;;
23302;SDS011;11820;48.738;9.092;2023-05-23T00:30:28;39.13;;;29.90;;
23302;SDS011;11820;48.738;9.092;2023-05-23T00:32:55;49.00;;;36.37;;
23302;SDS011;11820;48.738;9.092;2023-05-23T00:35:20;48.83;;;36.23;;
23302;SDS011;11820;48.738;9.092;2023-05-23T00:37:46;48.53;;;35.27;;
23302;SDS011;11820;48.738;9.092;2023-05-23T00:40:11;49.57;;;35.93;;
23302;SDS011;11820;48.738;9.092;2023-05-23T00:42:37;46.43;;;34.63;;
23302;SDS011;11820;48.738;9.092;2023-05-23T00:45:02;48.30;;;34.47;;
23302;SDS011;11820;48.738;9.092;2023-05-23T00:47:29;45.30;;;34.57;;
23302;SDS011;11820;48.738;9.092;2023-05-23T00:49:54;46.07;;;34.47;;
23302;SDS011;11820;48.738;9.092;2023-05-23T00:52:20;47.17;;;34.77;;
23302;SDS011;11820;48.738;9.092;2023-05-23T00:54:46;42.17;;;33.03;;
23302;SDS011;11820;48.738;9.092;2023-05-23T00:57:11;49.87;;;35.83;;
23302;SDS011;11820;48.738;9.092;2023-05-23T00:59:36;46.13;;;35.17;;
23302;SDS011;11820;48.738;9.092;2023-05-23T01:02:02;53.77;;;40.23;;
23302;SDS011;11820;48.738;9.092;2023-05-23T01:04:28;54.17;;;39.00;;
23302;SDS011;11820;48.738;9.092;2023-05-23T01:06:54;52.60;;;39.47;;
23302;SDS011;11820;48.738;9.092;2023-05-23T01:09:20;61.63;;;43.13;;
23302;SDS011;11820;48.738;9.092;2023-05-23T01:11:54;63.73;;;42.70;;
23302;SDS011;11820;48.738;9.092;2023-05-23T01:20:28;49.27;;;36.53;;
23302;SDS011;11820;48.738;9.092;2023-05-23T01:27:54;59.30;;;42.67;;
23302;SDS011;11820;48.738;9.092;2023-05-23T01:30:23;60.13;;;43.97;;
23302;SDS011;11820;48.738;9.092;2023-05-23T01:32:50;59.83;;;42.67;;
23302;SDS011;11820;48.738;9.092;2023-05-23T01:35:21;60.10;;;41.90;;
23302;SDS011;11820;48.738;9.092;2023-05-23T01:37:53;60.87;;;44.20;;
23302;SDS011;11820;48.738;9.092;2023-05-23T01:40:19;58.63;;;44.13;;
23302;SDS011;11820;48.738;9.092;2023-05-23T01:42:46;66.90;;;46.77;;
23302;SDS011;11820;48.738;9.092;2023-05-23T01:45:11;68.03;;;47.20;;
23302;SDS011;11820;48.738;9.092;2023-05-23T01:47:38;69.33;;;50.10;;
23302;SDS011;11820;48.738;9.092;2023-05-23T01:50:05;66.20;;;49.93;;
23302;SDS011;11820;48.738;9.092;2023-05-23T01:52:32;64.23;;;46.70;;
23302;SDS011;11820;48.738;9.092;2023-05-23T01:54:58;71.60;;;52.77;;
23302;SDS011;11820;48.738;9.092;2023-05-23T01:57:24;74.73;;;51.40;;
23302;SDS011;11820;48.738;9.092;2023-05-23T01:59:53;71.27;;;50.77;;
23302;SDS011;11820;48.738;9.092;2023-05-23T02:02:18;63.80;;;49.67;;
23302;SDS011;11820;48.738;9.092;2023-05-23T02:04:43;70.93;;;53.33;;
23302;SDS011;11820;48.738;9.092;2023-05-23T02:07:09;76.20;;;50.63;;
23302;SDS011;11820;48.738;9.092;2023-05-23T02:09:34;74.57;;;53.90;;
23302;SDS011;11820;48.738;9.092;2023-05-23T02:12:00;71.13;;;52.53;;
23302;SDS011;11820;48.738;9.092;2023-05-23T02:14:25;78.20;;;53.37;;
23302;SDS011;11820;48.738;9.092;2023-05-23T02:16:52;76.30;;;53.00;;
23302;SDS011;11820;48.738;9.092;2023-05-23T02:19:17;80.80;;;54.87;;
23302;SDS011;11820;48.738;9.092;2023-05-23T02:21:43;73.33;;;52.63;;
23302;SDS011;11820;48.738;9.092;2023-05-23T02:24:08;71.23;;;51.83;;
23302;SDS011;11820;48.738;9.092;2023-05-23T02:26:33;71.63;;;53.10;;
23302;SDS011;11820;48.738;9.092;2023-05-23T02:29:00;69.70;;;50.40;;
23302;SDS011;11820;48.738;9.092;2023-05-23T02:31:25;79.27;;;52.47;;
23302;SDS011;11820;48.738;9.092;2023-05-23T02:33:51;67.33;;;50.40;;
23302;SDS011;11820;48.738;9.092;2023-05-23T02:36:17;70.53;;;50.77;;
23302;SDS011;11820;48.738;9.092;2023-05-23T02:38:43;81.10;;;55.27;;
23302;SDS011;11820;48.738;9.092;2023-05-23T02:41:08;73.40;;;54.60;;
23302;SDS011;11820;48.738;9.092;2023-05-23T02:43:33;74.67;;;53.67;;
23302;SDS011;11820;48.738;9.092;2023-05-23T02:45:59;73.87;;;53.77;;
23302;SDS011;11820;48.738;9.092;2023-05-23T02:48:24;68.77;;;53.90;;
23302;SDS011;11820;48.738;9.092;2023-05-23T02:50:50;73.27;;;51.97;;
23302;SDS011;11820;48.738;9.092;2023-05-23T02:53:15;69.20;;;52.77;;
23302;SDS011;11820;48.738;9.092;2023-05-23T02:55:40;73.07;;;55.97;;
23302;SDS011;11820;48.738;9.092;2023-05-23T02:58:06;70.63;;;53.10;;
23302;SDS011;11820;48.738;9.092;2023-05-23T03:00:33;76.20;;;57.77;;
23302;SDS011;11820;48.738;9.092;2023-05-23T03:02:58;74.93;;;55.87;;
23302;SDS011;11820;48.738;9.092;2023-05-23T03:05:23;70.57;;;53.70;;
23302;SDS011;11820;48.738;9.092;2023-05-23T03:07:49;74.53;;;56.43;;
23302;SDS011;11820;48.738;9.092;2023-05-23T03:10:16;72.10;;;57.07;;
23302;SDS011;11820;48.738;9.092;2023-05-23T03:12:41;77.73;;;55.40;;
23302;SDS011;11820;48.738;9.092;2023-05-23T03:15:07;71.80;;;55.13;;
23302;SDS011;11820;48.738;9.092;2023-05-23T03:17:33;67.03;;;53.33;;
23302;SDS011;11820;48.738;9.092;2023-05-23T03:19:59;66.57;;;50.87;;
23302;SDS011;11820;48.738;9.092;2023-05-23T03:22:24;69.10;;;51.00;;
23302;SDS011;11820;48.738;9.092;2023-05-23T03:24:49;71.57;;;53.50;;
23302;SDS011;11820;48.738;9.092;2023-05-23T03:27:15;64.80;;;52.50;;
23302;SDS011;11820;48.738;9.092;2023-05-23T03:29:40;69.23;;;53.03;;
23302;SDS011;11820;48.738;9.092;2023-05-23T03:32:05;67.73;;;51.93;;
23302;SDS011;11820;48.738;9.092;2023-05-23T03:34:31;66.53;;;49.57;;
23302;SDS011;11820;48.738;9.092;2023-05-23T03:36:57;62.80;;;49.43;;
23302;SDS011;11820;48.738;9.092;2023-05-23T03:39:23;61.37;;;51.03;;
23302;SDS011;11820;48.738;9.092;2023-05-23T03:41:49;64.80;;;53.00;;
23302;SDS011;11820;48.738;9.092;2023-05-23T03:44:14;61.07;;;50.43;;
23302;SDS011;11820;48.738;9.092;2023-05-23T03:46:40;61.53;;;50.40;;
23302;SDS011;11820;48.738;9.092;2023-05-23T03:49:05;61.43;;;49.03;;
23302;SDS011;11820;48.738;9.092;2023-05-23T03:51:31;61.97;;;50.03;;
23302;SDS011;11820;48.738;9.092;2023-05-23T03:53:56;62.57;;;48.30;;
23302;SDS011;11820;48.738;9.092;2023-05-23T03:56:21;61.70;;;47.37;;
23302;SDS011;11820;48.738;9.092;2023-05-23T03:58:47;63.70;;;49.40;;
23302;SDS011;11820;48.738;9.092;2023-05-23T04:01:12;61.53;;;48.67;;
23302;SDS011;11820;48.738;9.092;2023-05-23T04:03:38;62.80;;;49.73;;
23302;SDS011;11820;48.738;9.092;2023-05-23T04:06:03;61.43;;;49.57;;
23302;SDS011;11820;48.738;9.092;2023-05-23T04:08:29;56.73;;;47.87;;
23302;SDS011;11820;48.738;9.092;2023-05-23T04:10:57;62.43;;;50.20;;
23302;SDS011;11820;48.738;9.092;2023-05-23T04:13:23;59.00;;;46.80;;
23302;SDS011;11820;48.738;9.092;2023-05-23T04:15:50;57.87;;;49.17;;
23302;SDS011;11820;48.738;9.092;2023-05-23T04:18:16;55.47;;;46.27;;
23302;SDS011;11820;48.738;9.092;2023-05-23T04:20:42;62.30;;;48.23;;
23302;SDS011;11820;48.738;9.092;2023-05-23T04:23:07;63.63;;;51.17;;
23302;SDS011;11820;48.738;9.092;2023-05-23T04:25:32;56.23;;;48.10;;
23302;SDS011;11820;48.738;9.092;2023-05-23T04:27:58;59.03;;;48.13;;
23302;SDS011;11820;48.738;9.092;2023-05-23T04:30:25;55.37;;;46.77;;
23302;SDS011;11820;48.738;9.092;2023-05-23T04:32:50;55.70;;;46.70;;
23302;SDS011;11820;48.738;9.092;2023-05-23T04:35:16;54.87;;;47.07;;
23302;SDS011;11820;48.738;9.092;2023-05-23T04:37:41;58.57;;;45.63;;
23302;SDS011;11820;48.738;9.092;2023-05-23T04:40:07;58.13;;;44.73;;
23302;SDS011;11820;48.738;9.092;2023-05-23T04:42:32;53.00;;;46.90;;
23302;SDS011;11820;48.738;9.092;2023-05-23T04:44:58;54.93;;;46.03;;
23302;SDS011;11820;48.738;9.092;2023-05-23T04:47:23;54.30;;;46.13;;
23302;SDS011;11820;48.738;9.092;2023-05-23T04:49:51;50.17;;;44.60;;
23302;SDS011;11820;48.738;9.092;2023-05-23T04:52:17;48.67;;;43.40;;
23302;SDS011;11820;48.738;9.092;2023-05-23T04:54:43;47.90;;;42.47;;
23302;SDS011;11820;48.738;9.092;2023-05-23T04:57:10;47.13;;;41.40;;
23302;SDS011;11820;48.738;9.092;2023-05-23T04:59:36;49.87;;;44.40;;
23302;SDS011;11820;48.738;9.092;2023-05-23T05:02:02;47.07;;;41.93;;
23302;SDS011;11820;48.738;9.092;2023-05-23T05:04:27;48.93;;;43.67;;
23302;SDS011;11820;48.738;9.092;2023-05-23T05:06:52;49.43;;;43.23;;
23302;SDS011;11820;48.738;9.092;2023-05-23T05:09:18;50.30;;;43.77;;
23302;SDS011;11820;48.738;9.092;2023-05-23T05:11:43;46.87;;;41.90;;
23302;SDS011;11820;48.738;9.092;2023-05-23T05:14:08;48.83;;;43.53;;
23302;SDS011;11820;48.738;9.092;2023-05-23T05:16:34;46.67;;;41.80;;
23302;SDS011;11820;48.738;9.092;2023-05-23T05:19:00;46.30;;;41.27;;
23302;SDS011;11820;48.738;9.092;2023-05-23T05:21:25;46.03;;;40.80;;
23302;SDS011;11820;48.738;9.092;2023-05-23T05:23:50;50.50;;;44.93;;
23302;SDS011;11820;48.738;9.092;2023-05-23T05:26:16;48.77;;;43.67;;
23302;SDS011;11820;48.738;9.092;2023-05-23T05:28:42;50.90;;;44.97;;
23302;SDS011;11820;48.738;9.092;2023-05-23T05:31:07;46.27;;;41.37;;
23302;SDS011;11820;48.738;9.092;2023-05-23T05:33:33;48.00;;;42.90;;
23302;SDS011;11820;48.738;9.092;2023-05-23T05:36:02;49.37;;;43.97;;
23302;SDS011;11820;48.738;9.092;2023-05-23T05:38:30;50.00;;;44.60;;
23302;SDS011;11820;48.738;9.092;2023-05-23T05:40:57;52.83;;;47.40;;
23302;SDS011;11820;48.738;9.092;2023-05-23T05:43:22;49.33;;;44.13;;
23302;SDS011;11820;48.738;9.092;2023-05-23T05:45:48;48.23;;;43.17;;
23302;SDS011;11820;48.738;9.092;2023-05-23T05:48:13;51.13;;;45.80;;
23302;SDS011;11820;48.738;9.092;2023-05-23T05:50:38;47.87;;;42.67;;
23302;SDS011;11820;48.738;9.092;2023-05-23T05:53:04;50.20;;;44.73;;
23302;SDS011;11820;48.738;9.092;2023-05-23T05:55:29;50.17;;;45.00;;
23302;SDS011;11820;48.738;9.092;2023-05-23T05:57:54;44.57;;;40.03;;
23302;SDS011;11820;48.738;9.092;2023-05-23T06:00:20;50.97;;;45.43;;
23302;SDS011;11820;48.738;9.092;2023-05-23T06:02:45;48.67;;;43.63;;
23302;SDS011;11820;48.738;9.092;2023-05-23T06:05:12;44.70;;;40.17;;
23302;SDS011;11820;48.738;9.092;2023-05-23T06:07:40;50.90;;;44.63;;
23302;SDS011;11820;48.738;9.092;2023-05-23T06:10:06;45.67;;;40.97;;
23302;SDS011;11820;48.738;9.092;2023-05-23T06:12:33;50.33;;;45.00;;
23302;SDS011;11820;48.738;9.092;2023-05-23T06:14:59;50.03;;;45.07;;
23302;SDS011;11820;48.738;9.092;2023-05-23T06:17:24;54.17;;;48.43;;
23302;SDS011;11820;48.738;9.092;2023-05-23T06:19:50;52.00;;;46.87;;
23302;SDS011;11820;48.738;9.092;2023-05-23T06:22:15;52.57;;;47.00;;
23302;SDS011;11820;48.738;9.092;2023-05-23T06:24:40;52.80;;;47.40;;
23302;SDS011;11820;48.738;9.092;2023-05-23T06:27:06;50.53;;;45.13;;
23302;SDS011;11820;48.738;9.092;2023-05-23T06:29:31;49.13;;;44.03;;
23302;SDS011;11820;48.738;9.092;2023-05-23T06:31:56;48.73;;;43.70;;
23302;SDS011;11820;48.738;9.092;2023-05-23T06:34:22;49.43;;;44.50;;
23302;SDS011;11820;48.738;9.092;2023-05-23T06:36:47;49.87;;;44.53;;
23302;SDS011;11820;48.738;9.092;2023-05-23T06:39:13;48.10;;;43.07;;
23302;SDS011;11820;48.738;9.092;2023-05-23T06:41:38;46.67;;;42.10;;
23302;SDS011;11820;48.738;9.092;2023-05-23T06:44:04;45.00;;;40.40;;
23302;SDS011;11820;48.738;9.092;2023-05-23T06:46:29;44.73;;;39.87;;
23302;SDS011;11820;48.738;9.092;2023-05-23T06:48:55;45.80;;;41.13;;
23302;SDS011;11820;48.738;9.092;2023-05-23T06:51:20;45.60;;;40.67;;
23302;SDS011;11820;48.738;9.092;2023-05-23T06:53:45;42.53;;;38.43;;
23302;SDS011;11820;48.738;9.092;2023-05-23T06:56:10;40.90;;;36.80;;
23302;SDS011;11820;48.738;9.092;2023-05-23T06:58:36;40.53;;;36.53;;
23302;SDS011;11820;48.738;9.092;2023-05-23T07:01:01;38.10;;;34.40;;
23302;SDS011;11820;48.738;9.092;2023-05-23T07:03:27;39.77;;;35.67;;
23302;SDS011;11820;48.738;9.092;2023-05-23T07:05:52;41.20;;;36.80;;
23302;SDS011;11820;48.738;9.092;2023-05-23T07:08:17;41.37;;;36.97;;
23302;SDS011;11820;48.738;9.092;2023-05-23T07:10:43;39.50;;;35.43;;
23302;SDS011;11820;48.738;9.092;2023-05-23T07:13:08;40.43;;;36.27;;
23302;SDS011;11820;48.738;9.092;2023-05-23T07:15:33;41.10;;;36.87;;
23302;SDS011;11820;48.738;9.092;2023-05-23T07:17:58;39.50;;;35.60;;
23302;SDS011;11820;48.738;9.092;2023-05-23T07:20:24;38.67;;;35.07;;
23302;SDS011;11820;48.738;9.092;2023-05-23T07:22:49;37.83;;;34.07;;
23302;SDS011;11820;48.738;9.092;2023-05-23T07:25:15;39.90;;;35.77;;
23302;SDS011;11820;48.738;9.092;2023-05-23T07:27:41;39.57;;;35.67;;
23302;SDS011;11820;48.738;9.092;2023-05-23T07:30:06;41.97;;;37.60;;
23302;SDS011;11820;48.738;9.092;2023-05-23T07:32:33;43.17;;;38.87;;
23302;SDS011;11820;48.738;9.092;2023-05-23T07:34:59;42.63;;;38.40;;
23302;SDS011;11820;48.738;9.092;2023-05-23T07:37:25;44.27;;;39.53;;
23302;SDS011;11820;48.738;9.092;2023-05-23T07:39:51;45.87;;;41.23;;
23302;SDS011;11820;48.738;9.092;2023-05-23T07:42:17;44.90;;;40.30;;
23302;SDS011;11820;48.738;9.092;2023-05-23T07:44:42;45.30;;;40.50;;
23302;SDS011;11820;48.738;9.092;2023-05-23T07:47:07;48.17;;;43.13;;
23302;SDS011;11820;48.738;9.092;2023-05-23T07:49:33;47.27;;;42.80;;
23302;SDS011;11820;48.738;9.092;2023-05-23T07:51:59;46.20;;;41.40;;
23302;SDS011;11820;48.738;9.092;2023-05-23T07:54:25;46.63;;;41.90;;
23302;SDS011;11820;48.738;9.092;2023-05-23T07:56:51;46.63;;;41.77;;
23302;SDS011;11820;48.738;9.092;2023-05-23T07:59:17;45.73;;;40.93;;
23302;SDS011;11820;48.738;9.092;2023-05-23T08:01:43;46.07;;;41.43;;
23302;SDS011;11820;48.738;9.092;2023-05-23T08:04:08;45.77;;;40.43;;
23302;SDS011;11820;48.738;9.092;2023-05-23T08:06:34;47.17;;;39.90;;
23302;SDS011;11820;48.738;9.092;2023-05-23T08:09:00;44.67;;;40.27;;
23302;SDS011;11820;48.738;9.092;2023-05-23T08:11:26;43.13;;;39.03;;
23302;SDS011;11820;48.738;9.092;2023-05-23T08:13:52;41.50;;;37.40;;
23302;SDS011;11820;48.738;9.092;2023-05-23T08:16:18;43.47;;;38.80;;
23302;SDS011;11820;48.738;9.092;2023-05-23T08:18:43;40.50;;;36.47;;
23302;SDS011;11820;48.738;9.092;2023-05-23T08:21:09;39.33;;;35.50;;
23302;SDS011;11820;48.738;9.092;2023-05-23T08:23:34;38.20;;;34.40;;
23302;SDS011;11820;48.738;9.092;2023-05-23T08:25:59;37.60;;;33.90;;
23302;SDS011;11820;48.738;9.092;2023-05-23T08:28:25;34.63;;;31.23;;
23302;SDS011;11820;48.738;9.092;2023-05-23T08:30:50;34.43;;;31.00;;
23302;SDS011;11820;48.738;9.092;2023-05-23T08:33:16;34.97;;;31.43;;
23302;SDS011;11820;48.738;9.092;2023-05-23T08:35:41;34.97;;;31.37;;
23302;SDS011;11820;48.738;9.092;2023-05-23T08:38:06;36.23;;;32.57;;
23302;SDS011;11820;48.738;9.092;2023-05-23T08:40:35;34.40;;;31.00;;
23302;SDS011;11820;48.738;9.092;2023-05-23T08:43:01;32.50;;;29.13;;
23302;SDS011;11820;48.738;9.092;2023-05-23T08:45:26;34.73;;;31.30;;
23302;SDS011;11820;48.738;9.092;2023-05-23T08:47:54;31.40;;;28.33;;
23302;SDS011;11820;48.738;9.092;2023-05-23T08:50:20;29.83;;;26.93;;
23302;SDS011;11820;48.738;9.092;2023-05-23T08:52:55;30.13;;;27.13;;
23302;SDS011;11820;48.738;9.092;2023-05-23T08:55:23;29.90;;;26.80;;
23302;SDS011;11820;48.738;9.092;2023-05-23T08:57:51;31.67;;;28.33;;
23302;SDS011;11820;48.738;9.092;2023-05-23T09:00:17;28.03;;;25.23;;
23302;SDS011;11820;48.738;9.092;2023-05-23T09:02:43;29.47;;;26.30;;
23302;SDS011;11820;48.738;9.092;2023-05-23T09:05:09;27.50;;;24.67;;
23302;SDS011;11820;48.738;9.092;2023-05-23T09:07:35;28.47;;;25.67;;
23302;SDS011;11820;48.738;9.092;2023-05-23T09:10:01;27.47;;;24.53;;
23302;SDS011;11820;48.738;9.092;2023-05-23T09:12:29;27.70;;;25.03;;
23302;SDS011;11820;48.738;9.092;2023-05-23T09:14:54;26.33;;;23.67;;
23302;SDS011;11820;48.738;9.092;2023-05-23T09:17:20;28.80;;;25.43;;
23302;SDS011;11820;48.738;9.092;2023-05-23T09:19:46;26.23;;;23.77;;
23302;SDS011;11820;48.738;9.092;2023-05-23T09:22:12;27.43;;;24.93;;
23302;SDS011;11820;48.738;9.092;2023-05-23T09:24:37;25.80;;;23.30;;
23302;SDS011;11820;48.738;9.092;2023-05-23T09:27:06;24.63;;;22.23;;
23302;SDS011;11820;48.738;9.092;2023-05-23T09:29:35;22.73;;;20.33;;
23302;SDS011;11820;48.738;9.092;2023-05-23T09:32:11;22.07;;;19.97;;
23302;SDS011;11820;48.738;9.092;2023-05-23T09:34:41;22.33;;;20.07;;
23302;SDS011;11820;48.738;9.092;2023-05-23T09:37:18;21.07;;;18.87;;
23302;SDS011;11820;48.738;9.092;2023-05-23T09:39:47;18.73;;;16.93;;
23302;SDS011;11820;48.738;9.092;2023-05-23T09:42:18;17.30;;;15.77;;
23302;SDS011;11820;48.738;9.092;2023-05-23T09:44:44;18.50;;;16.60;;
23302;SDS011;11820;48.738;9.092;2023-05-23T09:47:10;19.23;;;17.27;;
23302;SDS011;11820;48.738;9.092;2023-05-23T09:49:37;18.27;;;16.43;;
23302;SDS011;11820;48.738;9.092;2023-05-23T09:52:03;17.30;;;15.37;;
23302;SDS011;11820;48.738;9.092;2023-05-23T09:54:28;15.70;;;14.20;;
23302;SDS011;11820;48.738;9.092;2023-05-23T09:56:56;15.10;;;13.70;;
23302;SDS011;11820;48.738;9.092;2023-05-23T09:59:27;15.80;;;14.30;;
23302;SDS011;11820;48.738;9.092;2023-05-23T10:01:52;12.83;;;11.73;;
23302;SDS011;11820;48.738;9.092;2023-05-23T10:04:21;15.43;;;12.90;;
23302;SDS011;11820;48.738;9.092;2023-05-23T10:06:49;12.87;;;11.57;;
23302;SDS011;11820;48.738;9.092;2023-05-23T10:09:20;13.03;;;11.83;;
23302;SDS011;11820;48.738;9.092;2023-05-23T10:14:34;10.93;;;9.80;;
23302;SDS011;11820;48.738;9.092;2023-05-23T10:20:10;10.77;;;9.60;;
23302;SDS011;11820;48.738;9.092;2023-05-23T10:22:36;12.17;;;11.13;;
23302;SDS011;11820;48.738;9.092;2023-05-23T10:25:03;12.23;;;11.03;;
23302;SDS011;11820;48.738;9.092;2023-05-23T10:27:29;15.40;;;10.50;;
23302;SDS011;11820;48.738;9.092;2023-05-23T10:29:55;11.23;;;10.20;;
23302;SDS011;11820;48.738;9.092;2023-05-23T10:32:21;9.60;;;8.70;;
23302;SDS011;11820;48.738;9.092;2023-05-23T10:40:30;10.80;;;9.80;;
23302;SDS011;11820;48.738;9.092;2023-05-23T10:45:53;9.27;;;8.37;;
23302;SDS011;11820;48.738;9.092;2023-05-23T10:48:23;9.83;;;8.87;;
23302;SDS011;11820;48.738;9.092;2023-05-23T10:51:01;12.80;;;9.40;;
23302;SDS011;11820;48.738;9.092;2023-05-23T10:53:31;10.37;;;9.37;;
23302;SDS011;11820;48.738;9.092;2023-05-23T10:55:58;10.40;;;9.50;;
23302;SDS011;11820;48.738;9.092;2023-05-23T10:58:24;10.57;;;9.57;;
23302;SDS011;11820;48.738;9.092;2023-05-23T11:00:53;10.47;;;9.57;;
23302;SDS011;11820;48.738;9.092;2023-05-23T11:03:32;10.93;;;9.83;;
23302;SDS011;11820;48.738;9.092;2023-05-23T11:05:59;10.13;;;9.13;;
23302;SDS011;11820;48.738;9.092;2023-05-23T11:08:25;10.70;;;9.67;;
23302;SDS011;11820;48.738;9.092;2023-05-23T11:10:58;10.17;;;9.23;;
23302;SDS011;11820;48.738;9.092;2023-05-23T11:13:25;11.80;;;10.80;;
23302;SDS011;11820;48.738;9.092;2023-05-23T11:16:22;11.43;;;10.40;;
23302;SDS011;11820;48.738;9.092;2023-05-23T11:19:19;11.70;;;10.70;;
23302;SDS011;11820;48.738;9.092;2023-05-23T11:21:49;13.00;;;11.70;;
23302;SDS011;11820;48.738;9.092;2023-05-23T11:24:17;13.03;;;11.20;;
23302;SDS011;11820;48.738;9.092;2023-05-23T11:26:52;11.87;;;10.60;;
23302;SDS011;11820;48.738;9.092;2023-05-23T11:29:25;13.63;;;10.70;;
23302;SDS011;11820;48.738;9.092;2023-05-23T11:31:54;12.30;;;11.10;;
23302;SDS011;11820;48.738;9.092;2023-05-23T11:34:20;11.97;;;10.73;;
23302;SDS011;11820;48.738;9.092;2023-05-23T11:36:46;10.40;;;9.50;;
23302;SDS011;11820;48.738;9.092;2023-05-23T11:39:12;11.83;;;9.63;;
23302;SDS011;11820;48.738;9.092;2023-05-23T11:41:37;11.20;;;10.10;;
23302;SDS011;11820;48.738;9.092;2023-05-23T11:44:09;11.93;;;10.93;;
23302;SDS011;11820;48.738;9.092;2023-05-23T11:46:36;11.40;;;10.43;;
23302;SDS011;11820;48.738;9.092;2023-05-23T11:49:01;13.70;;;11.60;;
23302;SDS011;11820;48.738;9.092;2023-05-23T11:51:26;13.33;;;12.03;;
23302;SDS011;11820;48.738;9.092;2023-05-23T11:53:52;13.23;;;11.93;;
23302;SDS011;11820;48.738;9.092;2023-05-23T11:56:18;13.07;;;11.77;;
23302;SDS011;11820;48.738;9.092;2023-05-23T11:58:43;11.63;;;10.50;;
23302;SDS011;11820;48.738;9.092;2023-05-23T12:01:10;11.57;;;10.47;;
23302;SDS011;11820;48.738;9.092;2023-05-23T12:03:48;12.40;;;11.40;;
23302;SDS011;11820;48.738;9.092;2023-05-23T12:06:15;12.63;;;11.43;;
23302;SDS011;11820;48.738;9.092;2023-05-23T12:08:42;11.90;;;10.80;;
23302;SDS011;11820;48.738;9.092;2023-05-23T12:11:08;11.73;;;10.63;;
23302;SDS011;11820;48.738;9.092;2023-05-23T12:13:33;11.27;;;10.27;;
23302;SDS011;11820;48.738;9.092;2023-05-23T12:15:59;11.47;;;10.47;;
23302;SDS011;11820;48.738;9.092;2023-05-23T12:18:30;11.50;;;10.50;;
23302;SDS011;11820;48.738;9.092;2023-05-23T12:21:02;10.80;;;9.77;;
23302;SDS011;11820;48.738;9.092;2023-05-23T12:23:29;10.90;;;9.90;;
23302;SDS011;11820;48.738;9.092;2023-05-23T12:25:55;9.97;;;9.07;;
23302;SDS011;11820;48.738;9.092;2023-05-23T12:28:33;10.17;;;9.27;;
23302;SDS011;11820;48.738;9.092;2023-05-23T12:31:07;8.50;;;7.80;;
23302;SDS011;11820;48.738;9.092;2023-05-23T12:33:36;9.10;;;8.20;;
23302;SDS011;11820;48.738;9.092;2023-05-23T12:36:03;8.30;;;7.60;;
23302;SDS011;11820;48.738;9.092;2023-05-23T12:38:28;9.43;;;8.40;;
23302;SDS011;11820;48.738;9.092;2023-05-23T12:41:14;9.30;;;8.47;;
23302;SDS011;11820;48.738;9.092;2023-05-23T12:43:54;8.30;;;7.60;;
23302;SDS011;11820;48.738;9.092;2023-05-23T12:46:20;6.93;;;6.33;;
23302;SDS011;11820;48.738;9.092;2023-05-23T12:48:50;6.73;;;6.13;;
23302;SDS011;11820;48.738;9.092;2023-05-23T12:51:15;7.47;;;6.87;;
23302;SDS011;11820;48.738;9.092;2023-05-23T12:53:42;7.03;;;6.27;;
23302;SDS011;11820;48.738;9.092;2023-05-23T12:56:07;6.33;;;5.77;;
23302;SDS011;11820;48.738;9.092;2023-05-23T12:58:33;6.87;;;6.27;;
23302;SDS011;11820;48.738;9.092;2023-05-23T13:00:59;5.87;;;5.33;;
23302;SDS011;11820;48.738;9.092;2023-05-23T13:03:25;5.50;;;5.10;;
23302;SDS011;11820;48.738;9.092;2023-05-23T13:05:50;8.23;;;4.80;;
23302;SDS011;11820;48.738;9.092;2023-05-23T13:08:17;5.93;;;5.43;;
23302;SDS011;11820;48.738;9.092;2023-05-23T13:10:43;5.93;;;5.43;;
23302;SDS011;11820;48.738;9.092;2023-05-23T13:13:09;5.40;;;4.97;;
23302;SDS011;11820;48.738;9.092;2023-05-23T13:15:35;5.60;;;5.20;;
23302;SDS011;11820;48.738;9.092;2023-05-23T13:18:01;5.50;;;5.00;;
23302;SDS011;11820;48.738;9.092;2023-05-23T13:20:26;5.63;;;5.07;;
23302;SDS011;11820;48.738;9.092;2023-05-23T13:22:56;6.03;;;4.30;;
23302;SDS011;11820;48.738;9.092;2023-05-23T13:25:21;5.30;;;4.67;;
23302;SDS011;11820;48.738;9.092;2023-05-23T13:27:47;5.17;;;4.70;;
23302;SDS011;11820;48.738;9.092;2023-05-23T13:30:13;5.60;;;5.13;;
23302;SDS011;11820;48.738;9.092;2023-05-23T13:32:38;4.63;;;4.23;;
23302;SDS011;11820;48.738;9.092;2023-05-23T13:35:03;6.03;;;4.70;;
23302;SDS011;11820;48.738;9.092;2023-05-23T13:37:29;5.60;;;5.03;;
23302;SDS011;11820;48.738;9.092;2023-05-23T13:39:54;5.23;;;4.73;;
23302;SDS011;11820;48.738;9.092;2023-05-23T13:42:20;7.50;;;5.13;;
23302;SDS011;11820;48.738;9.092;2023-05-23T13:44:45;5.37;;;4.97;;
23302;SDS011;11820;48.738;9.092;2023-05-23T13:47:11;6.03;;;4.93;;
23302;SDS011;11820;48.738;9.092;2023-05-23T13:49:38;5.60;;;5.10;;
23302;SDS011;11820;48.738;9.092;2023-05-23T13:52:03;5.33;;;4.87;;
23302;SDS011;11820;48.738;9.092;2023-05-23T13:54:29;5.27;;;4.87;;
23302;SDS011;11820;48.738;9.092;2023-05-23T13:56:55;5.43;;;4.93;;
23302;SDS011;11820;48.738;9.092;2023-05-23T13:59:21;7.70;;;4.73;;
23302;SDS011;11820;48.738;9.092;2023-05-23T14:01:46;4.70;;;4.30;;
23302;SDS011;11820;48.738;9.092;2023-05-23T14:04:12;6.43;;;4.60;;
23302;SDS011;11820;48.738;9.092;2023-05-23T14:06:37;4.73;;;4.33;;
23302;SDS011;11820;48.738;9.092;2023-05-23T14:09:03;6.47;;;4.27;;
23302;SDS011;11820;48.738;9.092;2023-05-23T14:11:29;7.77;;;3.90;;
23302;SDS011;11820;48.738;9.092;2023-05-23T14:13:55;5.03;;;4.50;;
23302;SDS011;11820;48.738;9.092;2023-05-23T14:16:20;5.37;;;4.20;;
23302;SDS011;11820;48.738;9.092;2023-05-23T14:18:45;4.93;;;4.20;;
23302;SDS011;11820;48.738;9.092;2023-05-23T14:21:11;7.73;;;4.00;;
23302;SDS011;11820;48.738;9.092;2023-05-23T14:23:36;5.30;;;4.30;;
23302;SDS011;11820;48.738;9.092;2023-05-23T14:26:02;4.17;;;3.87;;
23302;SDS011;11820;48.738;9.092;2023-05-23T14:28:27;4.07;;;3.73;;
23302;SDS011;11820;48.738;9.092;2023-05-23T14:30:52;5.87;;;3.87;;
23302;SDS011;11820;48.738;9.092;2023-05-23T14:33:19;4.27;;;3.87;;
23302;SDS011;11820;48.738;9.092;2023-05-23T14:35:45;5.77;;;4.73;;
23302;SDS011;11820;48.738;9.092;2023-05-23T14:38:10;4.83;;;4.33;;
23302;SDS011;11820;48.738;9.092;2023-05-23T14:40:35;5.57;;;4.50;;
23302;SDS011;11820;48.738;9.092;2023-05-23T14:43:01;4.47;;;4.07;;
23302;SDS011;11820;48.738;9.092;2023-05-23T14:45:26;5.57;;;4.63;;
23302;SDS011;11820;48.738;9.092;2023-05-23T14:47:51;5.27;;;4.87;;